createdAt,value
2022-11-25T00:01:10.237Z,100725.78
2022-11-25T00:03:36.979Z,100674.13
2022-11-25T00:06:14.965Z,100695.47
2022-11-25T00:08:43.164Z,100660.75
2022-11-25T00:11:11.140Z,100690.00
2022-11-25T00:13:38.705Z,100641.78
2022-11-25T00:16:07.928Z,100692.72
2022-11-25T00:18:34.984Z,100661.56
2022-11-25T00:21:09.640Z,100671.41
2022-11-25T00:23:37.127Z,100748.28
2022-11-25T00:26:10.915Z,100767.97
2022-11-25T00:28:38.945Z,100662.63
2022-11-25T00:31:10.815Z,100652.97
2022-11-25T00:33:38.212Z,100662.69
2022-11-25T00:36:06.568Z,100754.63
2022-11-25T00:38:34.161Z,100707.31
2022-11-25T00:41:19.260Z,100691.34
2022-11-25T00:44:04.422Z,100733.34
2022-11-25T00:46:31.019Z,100730.69
2022-11-25T00:48:57.578Z,100714.72
2022-11-25T00:51:24.910Z,100695.16
2022-11-25T00:53:55.942Z,100697.03
2022-11-25T00:56:25.260Z,100643.53
2022-11-25T00:58:53.229Z,100656.94
2022-11-25T01:01:19.956Z,100731.78
2022-11-25T01:03:49.934Z,100737.22
2022-11-25T01:06:16.448Z,100662.31
2022-11-25T01:08:42.995Z,100657.97
2022-11-25T01:11:12.411Z,100707.91
2022-11-25T01:13:39.597Z,100617.88
2022-11-25T01:16:07.943Z,100692.09
2022-11-25T01:18:34.877Z,100660.94
2022-11-25T01:21:13.273Z,100601.94
2022-11-25T01:23:41.451Z,100621.56
2022-11-25T01:26:14.051Z,100665.41
2022-11-25T01:28:40.802Z,100750.94
2022-11-25T01:31:12.444Z,100743.00
2022-11-25T01:33:39.157Z,100739.53
2022-11-25T01:36:11.456Z,100637.06
2022-11-25T01:38:38.469Z,100741.44
2022-11-25T01:41:07.459Z,100689.59
2022-11-25T01:43:34.372Z,100724.53
2022-11-25T01:46:27.821Z,100709.50
2022-11-25T01:48:59.939Z,100665.00
2022-11-25T01:51:28.584Z,100668.47
2022-11-25T01:53:58.656Z,100738.91
2022-11-25T01:56:28.486Z,100659.59
2022-11-25T01:58:55.729Z,100650.75
2022-11-25T02:01:26.197Z,100749.94
2022-11-25T02:03:58.365Z,100733.00
2022-11-25T02:06:28.679Z,100663.41
2022-11-25T02:09:00.560Z,100642.13
2022-11-25T02:11:30.739Z,100748.31
2022-11-25T02:13:59.523Z,100658.22
2022-11-25T02:16:26.638Z,100726.94
2022-11-25T02:18:53.447Z,100672.50
2022-11-25T02:21:30.925Z,100718.94
2022-11-25T02:24:17.592Z,100692.22
2022-11-25T02:26:45.388Z,100695.81
2022-11-25T02:29:12.604Z,100691.38
2022-11-25T02:31:39.136Z,100703.00
2022-11-25T02:34:05.656Z,100644.13
2022-11-25T02:36:34.709Z,100737.84
2022-11-25T02:39:01.731Z,100682.53
2022-11-25T02:41:37.263Z,100692.34
2022-11-25T02:44:05.507Z,100720.00
2022-11-25T02:46:32.544Z,100687.88
2022-11-25T02:49:10.422Z,100719.31
2022-11-25T02:51:40.139Z,100726.44
2022-11-25T02:54:08.604Z,100672.00
2022-11-25T02:56:36.224Z,100699.69
2022-11-25T02:59:03.602Z,100715.69
2022-11-25T03:01:34.967Z,100701.38
2022-11-25T03:04:04.749Z,100809.34
2022-11-25T03:06:31.367Z,100751.31
2022-11-25T03:08:58.171Z,100804.88
2022-11-25T03:11:46.745Z,100726.25
2022-11-25T03:14:15.565Z,100736.78
2022-11-25T03:16:43.196Z,100731.50
2022-11-25T03:19:10.179Z,100751.06
2022-11-25T03:21:37.753Z,100737.47
2022-11-25T03:24:04.612Z,100740.06
2022-11-25T03:26:31.278Z,100741.78
2022-11-25T03:28:57.777Z,100736.44
2022-11-25T03:31:24.429Z,100712.22
2022-11-25T03:33:50.945Z,100733.63
2022-11-25T03:36:17.619Z,100778.34
2022-11-25T03:38:44.134Z,100756.06
2022-11-25T03:41:10.894Z,100697.34
2022-11-25T03:43:38.947Z,100696.84
2022-11-25T03:46:05.891Z,100655.69
2022-11-25T03:48:32.500Z,100690.28
2022-11-25T03:50:59.249Z,100666.97
2022-11-25T03:53:27.480Z,100692.88
2022-11-25T03:55:54.058Z,100696.50
2022-11-25T03:58:24.079Z,100710.78
2022-11-25T04:00:51.342Z,100691.19
2022-11-25T04:03:17.872Z,100701.75
2022-11-25T04:05:44.481Z,100706.91
2022-11-25T04:08:12.073Z,100697.81
2022-11-25T04:10:39.310Z,100760.25
2022-11-25T04:13:06.717Z,100751.28
2022-11-25T04:15:37.472Z,100774.41
2022-11-25T04:18:05.218Z,100811.03
2022-11-25T04:20:33.011Z,100782.31
2022-11-25T04:23:03.895Z,100812.50
2022-11-25T04:25:35.028Z,100730.19
2022-11-25T04:28:06.639Z,100758.63
2022-11-25T04:30:34.251Z,100742.41
2022-11-25T04:33:02.155Z,100830.88
2022-11-25T04:35:28.764Z,100826.28
2022-11-25T04:37:57.508Z,100743.22
2022-11-25T04:40:24.881Z,100764.66
2022-11-25T04:43:06.190Z,100798.59
2022-11-25T04:46:06.251Z,100781.31
2022-11-25T04:48:26.862Z,100798.97
2022-11-25T04:50:53.421Z,100759.59
2022-11-25T04:53:20.137Z,100795.13
2022-11-25T04:55:47.161Z,100744.97
2022-11-25T04:58:36.011Z,100822.63
2022-11-25T05:01:04.862Z,100840.41
2022-11-25T05:03:32.582Z,100843.00
2022-11-25T05:05:59.270Z,100891.09
2022-11-25T05:08:26.570Z,100808.13
2022-11-25T05:10:53.196Z,100800.91
2022-11-25T05:13:19.732Z,100806.44
2022-11-25T05:15:46.281Z,100778.72
2022-11-25T05:18:14.289Z,100809.97
2022-11-25T05:20:45.065Z,100827.81
2022-11-25T05:23:13.674Z,100850.19
2022-11-25T05:25:42.686Z,100870.78
2022-11-25T05:28:31.916Z,100862.69
2022-11-25T05:30:58.573Z,100886.00
2022-11-25T05:33:25.473Z,100844.91
2022-11-25T05:35:57.638Z,100837.75
2022-11-25T05:38:27.792Z,100886.84
2022-11-25T05:41:01.544Z,100839.63
2022-11-25T05:43:29.237Z,100819.16
2022-11-25T05:45:56.235Z,100896.88
2022-11-25T05:48:23.344Z,100819.91
2022-11-25T05:50:49.854Z,100826.16
2022-11-25T05:53:19.575Z,100816.13
2022-11-25T05:55:57.585Z,100826.63
2022-11-25T05:59:00.220Z,100918.28
2022-11-25T06:01:39.429Z,100837.56
2022-11-25T06:04:06.264Z,100818.50
2022-11-25T06:06:33.167Z,100906.75
2022-11-25T06:09:00.162Z,100872.53
2022-11-25T06:11:27.124Z,100845.34
2022-11-25T06:13:57.391Z,100860.22
2022-11-25T06:16:24.833Z,100908.38
2022-11-25T06:19:06.716Z,100944.81
2022-11-25T06:21:34.152Z,100937.25
2022-11-25T06:24:01.175Z,100893.06
2022-11-25T06:26:29.260Z,100938.41
2022-11-25T06:28:57.010Z,100918.28
2022-11-25T06:31:25.636Z,100879.75
2022-11-25T06:34:16.333Z,100877.69
2022-11-25T06:36:43.136Z,100854.25
2022-11-25T06:39:09.738Z,100929.16
2022-11-25T06:41:36.369Z,100920.28
2022-11-25T06:44:02.877Z,100891.72
2022-11-25T06:46:29.554Z,100867.28
2022-11-25T06:48:58.596Z,100935.22
2022-11-25T06:51:25.130Z,100897.31
2022-11-25T06:53:52.143Z,100888.53
2022-11-25T06:56:21.903Z,100906.16
2022-11-25T06:58:49.225Z,100936.00
2022-11-25T07:01:17.700Z,101007.38
2022-11-25T07:03:45.640Z,101008.16
2022-11-25T07:06:13.592Z,100995.44
2022-11-25T07:08:41.155Z,101001.00
2022-11-25T07:11:16.058Z,101021.50
2022-11-25T07:13:42.723Z,100926.50
2022-11-25T07:16:11.291Z,100955.72
2022-11-25T07:18:40.852Z,101020.03
2022-11-25T07:21:19.380Z,101030.69
2022-11-25T07:23:47.259Z,100936.53
2022-11-25T07:26:17.844Z,101016.16
2022-11-25T07:28:44.732Z,101020.59
2022-11-25T07:31:27.799Z,100985.63
2022-11-25T07:34:00.045Z,100970.53
2022-11-25T07:36:27.654Z,100940.81
2022-11-25T07:38:54.743Z,101040.06
2022-11-25T07:41:24.732Z,100946.09
2022-11-25T07:43:54.246Z,101012.56
2022-11-25T07:46:27.102Z,101018.44
2022-11-25T07:49:00.355Z,100990.38
2022-11-25T07:51:30.508Z,100932.50
2022-11-25T07:53:59.131Z,100974.06
2022-11-25T07:56:25.879Z,101028.91
2022-11-25T07:58:55.616Z,101029.53
2022-11-25T08:01:22.181Z,101007.75
2022-11-25T08:03:50.836Z,101097.31
2022-11-25T08:06:23.260Z,100875.50
2022-11-25T08:08:52.712Z,101075.53
2022-11-25T08:11:21.510Z,101031.81
2022-11-25T08:13:49.314Z,101054.22
2022-11-25T08:16:18.043Z,101095.69
2022-11-25T08:18:45.046Z,101031.19
2022-11-25T08:21:12.882Z,101096.94
2022-11-25T08:23:41.253Z,101086.31
2022-11-25T08:26:10.928Z,101101.03
2022-11-25T08:28:41.491Z,101098.56
2022-11-25T08:31:11.618Z,101072.75
2022-11-25T08:33:38.773Z,101007.50
2022-11-25T08:36:06.985Z,101066.47
2022-11-25T08:38:34.216Z,101055.44
2022-11-25T08:41:01.048Z,101059.09
2022-11-25T08:43:29.753Z,101066.38
2022-11-25T08:45:56.974Z,101148.91
2022-11-25T08:48:23.832Z,101100.03
2022-11-25T08:50:54.415Z,101120.09
2022-11-25T08:53:22.114Z,101131.03
2022-11-25T08:55:49.471Z,101109.41
2022-11-25T08:58:16.509Z,101042.19
2022-11-25T09:00:44.451Z,101102.53
2022-11-25T09:03:11.688Z,101098.22
2022-11-25T09:05:43.308Z,101097.22
2022-11-25T09:08:11.180Z,101092.13
2022-11-25T09:10:39.267Z,101118.28
2022-11-25T09:13:06.137Z,101088.22
2022-11-25T09:15:32.928Z,101121.28
2022-11-25T09:18:05.535Z,101162.38
2022-11-25T09:20:33.730Z,101091.09
2022-11-25T09:23:02.265Z,101120.56
2022-11-25T09:25:29.862Z,101124.22
2022-11-25T09:27:57.195Z,101106.50
2022-11-25T09:30:24.736Z,101191.25
2022-11-25T09:32:53.571Z,101078.00
2022-11-25T09:35:20.995Z,101172.59
2022-11-25T09:37:47.883Z,101132.56
2022-11-25T09:40:18.606Z,101189.63
2022-11-25T09:43:35.072Z,101223.63
2022-11-25T09:46:39.704Z,101231.66
2022-11-25T09:49:47.655Z,101232.63
2022-11-25T09:52:47.858Z,101195.19
2022-11-25T09:55:19.360Z,101233.53
2022-11-25T09:58:16.346Z,101160.41
2022-11-25T10:00:49.560Z,101246.84
2022-11-25T10:03:37.946Z,101247.66
2022-11-25T10:06:17.536Z,101221.81
2022-11-25T10:08:48.587Z,101178.97
2022-11-25T10:11:18.962Z,101237.72
2022-11-25T10:14:02.452Z,101193.72
2022-11-25T10:16:38.337Z,101255.16
2022-11-25T10:19:39.046Z,101248.97
2022-11-25T10:22:21.683Z,101210.28
2022-11-25T10:24:51.134Z,101239.84
2022-11-25T10:27:27.203Z,101213.03
2022-11-25T10:30:05.098Z,101205.03
2022-11-25T10:32:41.444Z,101195.84
2022-11-25T10:35:19.316Z,101181.84
2022-11-25T10:37:48.882Z,101197.63
2022-11-25T10:40:16.661Z,101272.63
2022-11-25T10:42:43.640Z,101238.06
2022-11-25T10:45:11.791Z,101239.47
2022-11-25T10:48:07.479Z,101220.59
2022-11-25T10:50:48.200Z,101246.69
2022-11-25T10:53:24.442Z,101214.81
2022-11-25T10:56:18.098Z,101290.31
2022-11-25T10:58:44.701Z,101187.59
2022-11-25T11:01:16.257Z,101283.00
2022-11-25T11:03:52.410Z,101282.94
2022-11-25T11:06:35.170Z,101219.50
2022-11-25T11:09:01.732Z,101297.72
2022-11-25T11:11:29.274Z,101247.38
2022-11-25T11:14:12.726Z,101272.06
2022-11-25T11:16:42.980Z,101299.31
2022-11-25T11:19:28.411Z,101275.28
2022-11-25T11:21:56.652Z,101239.53
2022-11-25T11:24:25.107Z,101301.44
2022-11-25T11:27:10.117Z,101317.28
2022-11-25T11:29:36.918Z,101224.50
2022-11-25T11:32:05.478Z,101249.78
2022-11-25T11:34:41.312Z,101321.03
2022-11-25T11:37:36.412Z,101318.72
2022-11-25T11:40:21.884Z,101332.00
2022-11-25T11:43:02.283Z,101320.66
2022-11-25T11:45:56.821Z,101331.56
2022-11-25T11:48:31.888Z,101328.34
2022-11-25T11:51:08.751Z,101294.25
2022-11-25T11:53:45.849Z,101268.59
2022-11-25T11:56:38.751Z,101345.19
2022-11-25T11:59:23.985Z,101351.38
2022-11-25T12:02:17.398Z,101273.63
2022-11-25T12:04:52.312Z,101324.59
2022-11-25T12:07:23.364Z,101275.44
2022-11-25T12:09:56.901Z,101289.66
2022-11-25T12:12:34.762Z,101304.63
2022-11-25T12:15:10.103Z,101285.72
2022-11-25T12:17:46.472Z,101282.81
2022-11-25T12:20:47.952Z,101385.47
2022-11-25T12:23:29.628Z,101385.34
2022-11-25T12:26:02.924Z,101388.91
2022-11-25T12:28:38.187Z,101259.25
2022-11-25T12:31:23.163Z,101343.66
2022-11-25T12:34:09.279Z,101356.16
2022-11-25T12:36:47.200Z,101330.53
2022-11-25T12:39:32.240Z,101392.44
2022-11-25T12:42:05.879Z,101321.00
2022-11-25T12:44:44.867Z,101313.88
2022-11-25T12:47:11.664Z,101366.31
2022-11-25T12:49:48.460Z,101310.84
2022-11-25T12:52:40.025Z,101345.09
2022-11-25T12:55:25.887Z,101414.56
2022-11-25T12:58:22.062Z,101357.59
2022-11-25T13:00:57.879Z,101429.97
2022-11-25T13:03:53.307Z,101434.22
2022-11-25T13:06:41.796Z,101429.94
2022-11-25T13:09:14.264Z,101435.28
2022-11-25T13:12:18.755Z,101434.44
2022-11-25T13:15:04.511Z,101445.94
2022-11-25T13:17:36.175Z,101400.13
2022-11-25T13:20:27.768Z,101449.75
2022-11-25T13:23:22.501Z,101312.19
2022-11-25T13:25:51.715Z,101442.97
2022-11-25T13:28:30.550Z,101468.97
2022-11-25T13:31:13.334Z,101466.44
2022-11-25T13:33:42.948Z,101467.34
2022-11-25T13:36:20.956Z,101385.94
2022-11-25T13:38:50.566Z,101400.03
2022-11-25T13:41:20.081Z,101475.00
2022-11-25T13:44:12.054Z,101471.44
2022-11-25T13:46:44.771Z,101460.59
2022-11-25T13:49:32.896Z,101484.50
2022-11-25T13:52:41.079Z,101485.31
2022-11-25T13:55:22.921Z,101450.56
2022-11-25T13:58:04.786Z,101410.13
2022-11-25T14:00:34.282Z,101487.94
2022-11-25T14:03:19.295Z,101496.03
2022-11-25T14:05:58.999Z,101490.69
2022-11-25T14:08:56.488Z,101507.50
2022-11-25T14:11:47.836Z,101501.00
2022-11-25T14:14:45.102Z,101505.94
2022-11-25T14:17:49.527Z,101407.19
2022-11-25T14:20:47.934Z,101422.97
2022-11-25T14:23:26.754Z,101510.59
2022-11-25T14:25:55.787Z,101427.06
2022-11-25T14:28:33.549Z,101515.44
2022-11-25T14:31:08.358Z,101446.22
2022-11-25T14:33:56.964Z,101468.44
2022-11-25T14:36:33.237Z,101484.56
2022-11-25T14:39:05.957Z,101450.34
2022-11-25T14:41:37.996Z,101421.53
2022-11-25T14:44:09.497Z,101457.06
2022-11-25T14:46:51.061Z,101509.88
2022-11-25T14:49:44.116Z,101431.66
2022-11-25T14:52:04.304Z,101481.81
2022-11-25T14:54:30.875Z,101540.91
2022-11-25T14:56:58.719Z,101497.72
2022-11-25T14:59:26.614Z,101451.94
2022-11-25T15:01:54.701Z,101550.47
2022-11-25T15:04:24.222Z,101545.88
2022-11-25T15:07:02.062Z,101515.16
2022-11-25T15:09:29.894Z,101599.28
2022-11-25T15:12:01.228Z,101515.78
2022-11-25T15:14:31.499Z,101544.38
2022-11-25T15:16:58.616Z,101518.09
2022-11-25T15:19:33.570Z,101585.41
2022-11-25T15:24:55.777Z,101599.97
2022-11-25T15:27:27.796Z,101591.41
2022-11-25T15:29:56.467Z,101595.50
2022-11-25T15:32:26.810Z,101611.16
2022-11-25T15:34:56.162Z,101626.72
2022-11-25T15:37:23.990Z,101508.56
2022-11-25T15:40:11.267Z,101560.84
2022-11-25T15:42:37.850Z,101547.53
2022-11-25T15:45:10.528Z,101629.75
2022-11-25T15:47:37.029Z,101651.59
2022-11-25T15:50:24.830Z,101539.44
2022-11-25T15:52:55.442Z,101556.00
2022-11-25T15:55:34.128Z,101562.63
2022-11-25T15:58:24.192Z,101660.13
2022-11-25T16:01:05.415Z,101579.38
2022-11-25T16:03:33.306Z,101569.03
2022-11-25T16:06:01.412Z,101659.75
2022-11-25T16:08:36.285Z,101633.34
2022-11-25T16:11:16.960Z,101687.06
2022-11-25T16:13:43.639Z,101664.31
2022-11-25T16:16:19.403Z,101647.81
2022-11-25T16:19:04.849Z,101581.69
2022-11-25T16:21:38.013Z,101715.81
2022-11-25T16:24:05.191Z,101728.09
2022-11-25T16:26:34.705Z,101733.28
2022-11-25T16:29:08.398Z,101646.41
2022-11-25T16:31:34.981Z,101630.16
2022-11-25T16:34:13.258Z,101695.59
2022-11-25T16:36:39.738Z,101649.50
2022-11-25T16:39:06.267Z,101693.22
2022-11-25T16:41:33.877Z,101699.16
2022-11-25T16:44:03.665Z,101681.31
2022-11-25T16:46:32.644Z,101662.38
2022-11-25T16:49:04.289Z,101653.94
2022-11-25T16:51:30.825Z,101657.94
2022-11-25T16:53:57.372Z,101667.06
2022-11-25T16:56:27.903Z,101694.09
2022-11-25T16:58:54.924Z,101697.56
2022-11-25T17:01:25.522Z,101711.56
2022-11-25T17:03:52.313Z,101806.50
2022-11-25T17:06:22.530Z,101776.44
2022-11-25T17:08:50.122Z,101728.38
2022-11-25T17:11:29.044Z,101818.41
2022-11-25T17:13:59.173Z,101723.88
2022-11-25T17:16:27.995Z,101708.50
2022-11-25T17:18:57.372Z,101687.41
2022-11-25T17:21:28.655Z,101821.44
2022-11-25T17:23:59.623Z,101731.47
2022-11-25T17:26:35.500Z,101835.25
2022-11-25T17:29:05.605Z,101753.56
2022-11-25T17:31:33.636Z,101710.22
2022-11-25T17:34:00.203Z,101709.22
2022-11-25T17:36:26.863Z,101724.91
2022-11-25T17:38:53.459Z,101727.97
2022-11-25T17:41:24.184Z,101786.19
2022-11-25T17:43:51.943Z,101777.66
2022-11-25T17:46:18.577Z,101801.75
2022-11-25T17:48:45.374Z,101771.06
2022-11-25T17:51:13.756Z,101778.31
2022-11-25T17:53:41.519Z,101870.06
2022-11-25T17:56:25.119Z,101847.34
2022-11-25T17:58:52.750Z,101807.34
2022-11-25T18:01:19.633Z,101811.16
2022-11-25T18:03:49.283Z,101778.63
2022-11-25T18:06:15.780Z,101921.00
2022-11-25T18:08:42.335Z,101867.72
2022-11-25T18:11:14.597Z,101781.03
2022-11-25T18:13:44.445Z,101858.69
2022-11-25T18:16:11.576Z,101839.41
2022-11-25T18:18:38.313Z,101906.91
2022-11-25T18:21:04.962Z,101838.19
2022-11-25T18:23:31.587Z,101843.72
2022-11-25T18:26:00.868Z,101942.44
2022-11-25T18:28:30.657Z,101937.69
2022-11-25T18:31:02.042Z,101928.22
2022-11-25T18:33:29.182Z,101879.13
2022-11-25T18:35:55.680Z,101815.72
2022-11-25T18:38:23.514Z,101882.97
2022-11-25T18:40:53.482Z,101888.06
2022-11-25T18:43:24.585Z,101889.72
2022-11-25T18:45:52.581Z,101854.84
2022-11-25T18:48:22.741Z,101948.66
2022-11-25T18:50:51.597Z,101910.94
2022-11-25T18:53:18.270Z,101889.59
2022-11-25T18:55:45.129Z,101879.31
2022-11-25T18:58:19.889Z,101923.84
2022-11-25T19:00:48.932Z,101900.88
2022-11-25T19:03:21.831Z,101947.41
2022-11-25T19:05:49.166Z,101908.50
2022-11-25T19:08:16.214Z,101899.84
2022-11-25T19:10:44.582Z,102008.41
2022-11-25T19:13:40.801Z,101996.16
2022-11-25T19:16:12.787Z,101908.63
2022-11-25T19:18:41.574Z,101926.09
2022-11-25T19:21:14.357Z,101867.59
2022-11-25T19:23:41.520Z,101913.88
2022-11-25T19:26:21.784Z,101951.06
2022-11-25T19:28:51.475Z,102031.13
2022-11-25T19:31:19.396Z,102021.69
2022-11-25T19:33:48.837Z,101904.38
2022-11-25T19:36:24.130Z,101961.47
2022-11-25T19:38:50.893Z,102011.19
2022-11-25T19:41:17.738Z,101962.47
2022-11-25T19:43:44.272Z,101941.25
2022-11-25T19:46:46.275Z,102065.72
2022-11-25T19:49:19.815Z,101961.56
2022-11-25T19:51:47.476Z,101972.75
2022-11-25T19:54:17.295Z,101969.41
2022-11-25T19:56:45.381Z,101883.16
2022-11-25T19:59:11.960Z,102070.28
2022-11-25T20:01:45.263Z,102074.06
2022-11-25T20:04:20.756Z,102079.25
2022-11-25T20:06:48.880Z,102012.44
2022-11-25T20:09:15.476Z,102033.06
2022-11-25T20:11:42.556Z,102100.31
2022-11-25T20:14:09.070Z,102047.66
2022-11-25T20:16:40.015Z,102024.69
2022-11-25T20:19:07.665Z,102017.19
2022-11-25T20:21:39.781Z,102112.75
2022-11-25T20:24:13.026Z,102031.94
2022-11-25T20:26:40.209Z,102114.81
2022-11-25T20:29:30.513Z,102128.97
2022-11-25T20:31:58.476Z,102081.31
2022-11-25T20:34:25.090Z,102010.00
2022-11-25T20:36:51.562Z,102051.13
2022-11-25T20:39:19.466Z,102085.88
2022-11-25T20:41:51.788Z,102027.56
2022-11-25T20:44:19.880Z,102128.53
2022-11-25T20:46:46.495Z,102042.00
2022-11-25T20:49:22.374Z,102047.28
2022-11-25T20:51:49.244Z,102062.59
2022-11-25T20:54:16.828Z,102104.94
2022-11-25T20:56:43.345Z,102062.69
2022-11-25T20:59:23.776Z,102039.69
2022-11-25T21:01:52.578Z,102104.78
2022-11-25T21:04:19.244Z,102142.59
2022-11-25T21:06:46.058Z,102166.72
2022-11-25T21:09:19.533Z,102135.25
2022-11-25T21:11:47.822Z,102057.47
2022-11-25T21:14:18.174Z,102103.88
2022-11-25T21:16:45.473Z,102157.66
2022-11-25T21:19:14.260Z,102094.38
2022-11-25T21:21:44.225Z,102168.19
2022-11-25T21:24:28.362Z,102075.13
2022-11-25T21:26:56.821Z,102094.53
2022-11-25T21:29:23.718Z,102096.97
2022-11-25T21:31:50.295Z,102156.47
2022-11-25T21:34:16.974Z,102185.25
2022-11-25T21:36:45.923Z,102191.41
2022-11-25T21:39:25.626Z,102071.66
2022-11-25T21:41:52.954Z,102171.78
2022-11-25T21:44:27.131Z,102142.47
2022-11-25T21:46:54.102Z,102105.38
2022-11-25T21:49:21.086Z,102123.50
2022-11-25T21:51:47.676Z,102194.47
2022-11-25T21:54:14.216Z,102073.94
2022-11-25T21:56:40.801Z,102138.06
2022-11-25T21:59:14.263Z,102106.03
2022-11-25T22:01:40.701Z,102162.81
2022-11-25T22:04:13.359Z,102145.38
2022-11-25T22:06:39.775Z,102262.41
2022-11-25T22:09:06.308Z,102147.19
2022-11-25T22:11:36.528Z,102178.56
2022-11-25T22:14:06.405Z,102170.13
2022-11-25T22:16:35.094Z,102258.47
2022-11-25T22:19:01.816Z,102192.00
2022-11-25T22:21:28.334Z,102224.41
2022-11-25T22:23:55.108Z,102176.91
2022-11-25T22:26:33.171Z,102283.34
2022-11-25T22:29:02.253Z,102130.41
2022-11-25T22:31:28.997Z,102204.66
2022-11-25T22:33:55.728Z,102196.19
2022-11-25T22:36:28.153Z,102287.81
2022-11-25T22:38:54.596Z,102195.72
2022-11-25T22:41:21.208Z,102178.47
2022-11-25T22:43:52.039Z,102242.94
2022-11-25T22:46:18.879Z,102184.81
2022-11-25T22:48:46.069Z,102265.25
2022-11-25T22:51:20.749Z,102211.97
2022-11-25T22:53:47.220Z,102199.28
2022-11-25T22:56:17.483Z,102230.25
2022-11-25T22:58:44.288Z,102264.78
2022-11-25T23:01:14.454Z,102245.31
2022-11-25T23:03:43.904Z,102211.00
2022-11-25T23:06:12.698Z,102208.19
2022-11-25T23:08:40.068Z,102274.00
2022-11-25T23:11:06.775Z,102284.81
2022-11-25T23:13:35.275Z,102267.56
2022-11-25T23:16:04.368Z,102259.47
2022-11-25T23:18:38.967Z,102308.34
2022-11-25T23:21:12.825Z,102302.50
2022-11-25T23:23:39.339Z,102271.59
2022-11-25T23:26:06.378Z,102258.56
2022-11-25T23:28:32.939Z,102223.47
2022-11-25T23:31:01.244Z,102318.25
2022-11-25T23:33:40.716Z,102231.84
2022-11-25T23:36:36.435Z,102354.94
2022-11-25T23:39:03.704Z,102249.19
2022-11-25T23:41:33.486Z,102265.75
2022-11-25T23:44:23.915Z,102349.97
2022-11-25T23:46:52.867Z,102341.06
2022-11-25T23:49:29.863Z,102318.25
2022-11-25T23:52:04.592Z,102250.47
2022-11-25T23:54:43.964Z,102257.31
2022-11-25T23:57:26.173Z,102367.13
2022-11-25T23:59:52.806Z,102300.44
